sensor_id;sensor_type;location;lat;lon;timestamp;temperature;humidity
51029;DHT22;37054;52.054;8.600;2022-12-07T00:00:12;11.20;63.30
51029;DHT22;37054;52.054;8.600;2022-12-07T00:02:37;11.30;63.30
51029;DHT22;37054;52.054;8.600;2022-12-07T00:05:03;11.30;63.30
51029;DHT22;37054;52.054;8.600;2022-12-07T00:07:29;11.30;63.20
51029;DHT22;37054;52.054;8.600;2022-12-07T00:09:54;11.40;63.20
51029;DHT22;37054;52.054;8.600;2022-12-07T00:12:19;11.40;63.20
51029;DHT22;37054;52.054;8.600;2022-12-07T00:14:46;11.40;63.00
51029;DHT22;37054;52.054;8.600;2022-12-07T00:17:11;11.40;63.10
51029;DHT22;37054;52.054;8.600;2022-12-07T00:19:37;11.40;63.20
51029;DHT22;37054;52.054;8.600;2022-12-07T00:22:02;11.50;62.90
51029;DHT22;37054;52.054;8.600;2022-12-07T00:24:28;11.50;63.00
51029;DHT22;37054;52.054;8.600;2022-12-07T00:26:53;11.50;62.90
51029;DHT22;37054;52.054;8.600;2022-12-07T00:29:19;11.50;62.80
51029;DHT22;37054;52.054;8.600;2022-12-07T00:31:45;11.50;63.00
51029;DHT22;37054;52.054;8.600;2022-12-07T00:34:12;11.50;62.90
51029;DHT22;37054;52.054;8.600;2022-12-07T00:36:38;11.50;62.90
51029;DHT22;37054;52.054;8.600;2022-12-07T00:39:04;11.50;62.90
51029;DHT22;37054;52.054;8.600;2022-12-07T00:41:29;11.50;63.00
51029;DHT22;37054;52.054;8.600;2022-12-07T00:43:55;11.60;62.90
51029;DHT22;37054;52.054;8.600;2022-12-07T00:46:21;11.50;62.90
51029;DHT22;37054;52.054;8.600;2022-12-07T00:48:47;11.60;63.00
51029;DHT22;37054;52.054;8.600;2022-12-07T00:51:13;11.60;62.90
51029;DHT22;37054;52.054;8.600;2022-12-07T00:53:39;11.60;63.00
51029;DHT22;37054;52.054;8.600;2022-12-07T00:56:05;11.60;62.90
51029;DHT22;37054;52.054;8.600;2022-12-07T00:58:31;11.60;62.90
51029;DHT22;37054;52.054;8.600;2022-12-07T01:00:59;11.60;63.00
51029;DHT22;37054;52.054;8.600;2022-12-07T01:03:24;11.60;62.90
51029;DHT22;37054;52.054;8.600;2022-12-07T01:05:51;11.60;62.90
51029;DHT22;37054;52.054;8.600;2022-12-07T01:08:16;11.60;62.70
51029;DHT22;37054;52.054;8.600;2022-12-07T01:10:42;11.60;62.70
51029;DHT22;37054;52.054;8.600;2022-12-07T01:13:07;11.50;62.70
51029;DHT22;37054;52.054;8.600;2022-12-07T01:15:33;11.50;62.70
51029;DHT22;37054;52.054;8.600;2022-12-07T01:17:59;11.50;62.80
51029;DHT22;37054;52.054;8.600;2022-12-07T01:20:24;11.50;62.80
51029;DHT22;37054;52.054;8.600;2022-12-07T01:22:50;11.50;62.70
51029;DHT22;37054;52.054;8.600;2022-12-07T01:25:15;11.40;62.70
51029;DHT22;37054;52.054;8.600;2022-12-07T01:27:41;11.30;62.50
51029;DHT22;37054;52.054;8.600;2022-12-07T01:30:07;11.20;62.30
51029;DHT22;37054;52.054;8.600;2022-12-07T01:32:33;11.20;62.40
51029;DHT22;37054;52.054;8.600;2022-12-07T01:34:59;11.10;62.40
51029;DHT22;37054;52.054;8.600;2022-12-07T01:37:24;11.10;62.30
51029;DHT22;37054;52.054;8.600;2022-12-07T01:39:50;11.00;62.30
51029;DHT22;37054;52.054;8.600;2022-12-07T01:42:16;10.90;62.30
51029;DHT22;37054;52.054;8.600;2022-12-07T01:47:26;10.70;61.90
51029;DHT22;37054;52.054;8.600;2022-12-07T01:49:52;10.60;62.00
51029;DHT22;37054;52.054;8.600;2022-12-07T01:54:50;10.50;62.20
51029;DHT22;37054;52.054;8.600;2022-12-07T01:57:16;10.50;62.30
51029;DHT22;37054;52.054;8.600;2022-12-07T01:59:45;10.50;62.30
51029;DHT22;37054;52.054;8.600;2022-12-07T02:02:47;10.40;62.30
51029;DHT22;37054;52.054;8.600;2022-12-07T02:05:06;10.40;62.00
51029;DHT22;37054;52.054;8.600;2022-12-07T02:07:32;10.30;61.80
51029;DHT22;37054;52.054;8.600;2022-12-07T02:12:59;10.10;61.20
51029;DHT22;37054;52.054;8.600;2022-12-07T02:15:30;10.00;61.00
51029;DHT22;37054;52.054;8.600;2022-12-07T02:18:02;9.80;60.90
51029;DHT22;37054;52.054;8.600;2022-12-07T02:20:37;9.70;60.70
51029;DHT22;37054;52.054;8.600;2022-12-07T02:25:52;9.50;60.30
51029;DHT22;37054;52.054;8.600;2022-12-07T02:28:31;9.40;60.20
51029;DHT22;37054;52.054;8.600;2022-12-07T02:30:59;9.20;59.90
51029;DHT22;37054;52.054;8.600;2022-12-07T02:33:31;9.10;59.90
51029;DHT22;37054;52.054;8.600;2022-12-07T02:35:59;9.00;59.90
51029;DHT22;37054;52.054;8.600;2022-12-07T02:38:26;8.90;60.10
51029;DHT22;37054;52.054;8.600;2022-12-07T02:40:55;8.80;60.30
51029;DHT22;37054;52.054;8.600;2022-12-07T02:43:24;8.80;60.30
51029;DHT22;37054;52.054;8.600;2022-12-07T02:45:51;8.70;60.70
51029;DHT22;37054;52.054;8.600;2022-12-07T02:48:17;8.70;61.00
51029;DHT22;37054;52.054;8.600;2022-12-07T02:50:44;8.70;61.20
51029;DHT22;37054;52.054;8.600;2022-12-07T02:55:54;8.60;61.30
51029;DHT22;37054;52.054;8.600;2022-12-07T02:58:27;8.50;61.30
51029;DHT22;37054;52.054;8.600;2022-12-07T03:01:00;8.50;61.40
51029;DHT22;37054;52.054;8.600;2022-12-07T03:03:28;8.50;61.40
51029;DHT22;37054;52.054;8.600;2022-12-07T03:11:16;8.40;61.00
51029;DHT22;37054;52.054;8.600;2022-12-07T03:16:14;8.30;60.70
51029;DHT22;37054;52.054;8.600;2022-12-07T03:18:48;8.20;60.70
51029;DHT22;37054;52.054;8.600;2022-12-07T03:21:15;8.20;60.70
51029;DHT22;37054;52.054;8.600;2022-12-07T03:23:42;8.10;60.50
51029;DHT22;37054;52.054;8.600;2022-12-07T03:26:09;8.10;60.50
51029;DHT22;37054;52.054;8.600;2022-12-07T03:28:41;8.00;60.60
51029;DHT22;37054;52.054;8.600;2022-12-07T03:31:11;8.00;60.80
51029;DHT22;37054;52.054;8.600;2022-12-07T03:33:39;8.00;61.10
51029;DHT22;37054;52.054;8.600;2022-12-07T03:36:19;8.00;61.40
51029;DHT22;37054;52.054;8.600;2022-12-07T03:38:47;8.00;61.40
51029;DHT22;37054;52.054;8.600;2022-12-07T03:41:16;8.00;61.40
51029;DHT22;37054;52.054;8.600;2022-12-07T03:43:43;8.00;61.60
51029;DHT22;37054;52.054;8.600;2022-12-07T03:46:20;7.90;61.50
51029;DHT22;37054;52.054;8.600;2022-12-07T03:49:09;8.00;61.50
51029;DHT22;37054;52.054;8.600;2022-12-07T03:51:39;7.90;61.50
51029;DHT22;37054;52.054;8.600;2022-12-07T03:56:34;7.90;61.40
51029;DHT22;37054;52.054;8.600;2022-12-07T03:59:00;7.90;61.30
51029;DHT22;37054;52.054;8.600;2022-12-07T04:01:25;7.90;61.50
51029;DHT22;37054;52.054;8.600;2022-12-07T04:03:51;7.90;61.40
51029;DHT22;37054;52.054;8.600;2022-12-07T04:06:16;7.90;61.50
51029;DHT22;37054;52.054;8.600;2022-12-07T04:08:42;7.90;61.60
51029;DHT22;37054;52.054;8.600;2022-12-07T04:11:08;8.00;61.80
51029;DHT22;37054;52.054;8.600;2022-12-07T04:13:33;8.00;61.90
51029;DHT22;37054;52.054;8.600;2022-12-07T04:16:19;8.00;61.90
51029;DHT22;37054;52.054;8.600;2022-12-07T04:18:44;8.00;61.60
51029;DHT22;37054;52.054;8.600;2022-12-07T04:21:10;8.00;61.60
51029;DHT22;37054;52.054;8.600;2022-12-07T04:23:35;8.00;61.80
51029;DHT22;37054;52.054;8.600;2022-12-07T04:26:01;8.10;62.20
51029;DHT22;37054;52.054;8.600;2022-12-07T04:28:27;8.20;62.30
51029;DHT22;37054;52.054;8.600;2022-12-07T04:30:52;8.20;62.50
51029;DHT22;37054;52.054;8.600;2022-12-07T04:33:18;8.30;62.60
51029;DHT22;37054;52.054;8.600;2022-12-07T04:35:43;8.30;62.70
51029;DHT22;37054;52.054;8.600;2022-12-07T04:38:09;8.40;62.80
51029;DHT22;37054;52.054;8.600;2022-12-07T04:40:34;8.50;63.00
51029;DHT22;37054;52.054;8.600;2022-12-07T04:43:00;8.60;63.00
51029;DHT22;37054;52.054;8.600;2022-12-07T04:45:25;8.60;63.00
51029;DHT22;37054;52.054;8.600;2022-12-07T04:47:51;8.70;62.80
51029;DHT22;37054;52.054;8.600;2022-12-07T04:50:17;8.60;62.60
51029;DHT22;37054;52.054;8.600;2022-12-07T04:52:42;8.60;62.70
51029;DHT22;37054;52.054;8.600;2022-12-07T04:55:08;8.70;62.60
51029;DHT22;37054;52.054;8.600;2022-12-07T04:57:33;8.70;62.70
51029;DHT22;37054;52.054;8.600;2022-12-07T04:59:59;8.70;62.70
51029;DHT22;37054;52.054;8.600;2022-12-07T05:02:26;8.70;62.70
51029;DHT22;37054;52.054;8.600;2022-12-07T05:04:52;8.70;62.90
51029;DHT22;37054;52.054;8.600;2022-12-07T05:07:17;8.80;62.90
51029;DHT22;37054;52.054;8.600;2022-12-07T05:09:43;8.90;62.90
51029;DHT22;37054;52.054;8.600;2022-12-07T05:12:09;9.00;63.00
51029;DHT22;37054;52.054;8.600;2022-12-07T05:14:34;9.00;63.00
51029;DHT22;37054;52.054;8.600;2022-12-07T05:17:00;9.10;63.00
51029;DHT22;37054;52.054;8.600;2022-12-07T05:19:26;9.20;63.00
51029;DHT22;37054;52.054;8.600;2022-12-07T05:21:51;9.20;62.90
51029;DHT22;37054;52.054;8.600;2022-12-07T05:24:17;9.30;62.80
51029;DHT22;37054;52.054;8.600;2022-12-07T05:26:43;9.30;62.80
51029;DHT22;37054;52.054;8.600;2022-12-07T05:29:13;9.40;62.90
51029;DHT22;37054;52.054;8.600;2022-12-07T05:31:38;9.40;63.00
51029;DHT22;37054;52.054;8.600;2022-12-07T05:34:12;9.50;63.00
51029;DHT22;37054;52.054;8.600;2022-12-07T05:36:37;9.50;62.90
51029;DHT22;37054;52.054;8.600;2022-12-07T05:39:03;9.50;62.90
51029;DHT22;37054;52.054;8.600;2022-12-07T05:41:29;9.50;62.70
51029;DHT22;37054;52.054;8.600;2022-12-07T05:44:13;9.50;62.70
51029;DHT22;37054;52.054;8.600;2022-12-07T05:46:38;9.60;62.80
51029;DHT22;37054;52.054;8.600;2022-12-07T05:49:04;9.60;62.70
51029;DHT22;37054;52.054;8.600;2022-12-07T05:51:29;9.60;62.60
51029;DHT22;37054;52.054;8.600;2022-12-07T05:53:55;9.60;62.60
51029;DHT22;37054;52.054;8.600;2022-12-07T05:56:20;9.60;62.50
51029;DHT22;37054;52.054;8.600;2022-12-07T05:58:46;9.60;62.40
51029;DHT22;37054;52.054;8.600;2022-12-07T06:01:30;9.60;62.50
51029;DHT22;37054;52.054;8.600;2022-12-07T06:03:56;9.60;62.40
51029;DHT22;37054;52.054;8.600;2022-12-07T06:06:21;9.50;62.20
51029;DHT22;37054;52.054;8.600;2022-12-07T06:08:47;9.50;62.00
51029;DHT22;37054;52.054;8.600;2022-12-07T06:11:13;9.40;61.70
51029;DHT22;37054;52.054;8.600;2022-12-07T06:13:57;9.30;61.80
51029;DHT22;37054;52.054;8.600;2022-12-07T06:16:23;9.30;62.00
51029;DHT22;37054;52.054;8.600;2022-12-07T06:18:48;9.30;61.90
51029;DHT22;37054;52.054;8.600;2022-12-07T06:21:14;9.20;61.70
51029;DHT22;37054;52.054;8.600;2022-12-07T06:23:39;9.10;61.30
51029;DHT22;37054;52.054;8.600;2022-12-07T06:26:05;9.00;61.00
51029;DHT22;37054;52.054;8.600;2022-12-07T06:28:30;8.90;60.70
51029;DHT22;37054;52.054;8.600;2022-12-07T06:30:57;8.80;60.70
51029;DHT22;37054;52.054;8.600;2022-12-07T06:33:23;8.80;61.10
51029;DHT22;37054;52.054;8.600;2022-12-07T06:35:48;8.80;61.50
51029;DHT22;37054;52.054;8.600;2022-12-07T06:38:14;8.80;61.70
51029;DHT22;37054;52.054;8.600;2022-12-07T06:40:40;8.80;61.80
51029;DHT22;37054;52.054;8.600;2022-12-07T06:43:05;8.80;62.00
51029;DHT22;37054;52.054;8.600;2022-12-07T06:45:31;8.80;61.90
51029;DHT22;37054;52.054;8.600;2022-12-07T06:48:02;8.70;61.90
51029;DHT22;37054;52.054;8.600;2022-12-07T06:50:28;8.70;61.70
51029;DHT22;37054;52.054;8.600;2022-12-07T06:52:54;8.60;61.60
51029;DHT22;37054;52.054;8.600;2022-12-07T06:55:19;8.50;61.60
51029;DHT22;37054;52.054;8.600;2022-12-07T06:57:48;8.50;61.60
51029;DHT22;37054;52.054;8.600;2022-12-07T07:00:16;8.50;61.30
51029;DHT22;37054;52.054;8.600;2022-12-07T07:02:42;8.40;61.10
51029;DHT22;37054;52.054;8.600;2022-12-07T07:05:10;8.30;60.80
51029;DHT22;37054;52.054;8.600;2022-12-07T07:07:35;8.30;60.60
51029;DHT22;37054;52.054;8.600;2022-12-07T07:10:01;8.20;60.60
51029;DHT22;37054;52.054;8.600;2022-12-07T07:12:27;8.20;60.90
51029;DHT22;37054;52.054;8.600;2022-12-07T07:14:52;8.20;61.10
51029;DHT22;37054;52.054;8.600;2022-12-07T07:17:18;8.20;61.40
51029;DHT22;37054;52.054;8.600;2022-12-07T07:19:43;8.20;61.40
51029;DHT22;37054;52.054;8.600;2022-12-07T07:22:09;8.20;61.40
51029;DHT22;37054;52.054;8.600;2022-12-07T07:24:35;8.20;61.40
51029;DHT22;37054;52.054;8.600;2022-12-07T07:27:00;8.10;61.40
51029;DHT22;37054;52.054;8.600;2022-12-07T07:29:26;8.10;61.50
51029;DHT22;37054;52.054;8.600;2022-12-07T07:31:51;8.10;61.40
51029;DHT22;37054;52.054;8.600;2022-12-07T07:34:17;8.10;61.20
51029;DHT22;37054;52.054;8.600;2022-12-07T07:36:43;8.00;61.00
51029;DHT22;37054;52.054;8.600;2022-12-07T07:39:09;8.00;61.00
51029;DHT22;37054;52.054;8.600;2022-12-07T07:41:35;7.90;60.90
51029;DHT22;37054;52.054;8.600;2022-12-07T07:44:00;7.90;61.00
51029;DHT22;37054;52.054;8.600;2022-12-07T07:46:26;7.80;61.00
51029;DHT22;37054;52.054;8.600;2022-12-07T07:48:51;7.80;61.00
51029;DHT22;37054;52.054;8.600;2022-12-07T07:51:17;7.80;61.00
51029;DHT22;37054;52.054;8.600;2022-12-07T07:53:42;7.80;61.10
51029;DHT22;37054;52.054;8.600;2022-12-07T07:56:08;7.80;61.50
51029;DHT22;37054;52.054;8.600;2022-12-07T07:58:33;7.80;61.60
51029;DHT22;37054;52.054;8.600;2022-12-07T08:01:05;7.80;61.70
51029;DHT22;37054;52.054;8.600;2022-12-07T08:03:31;7.80;61.70
51029;DHT22;37054;52.054;8.600;2022-12-07T08:05:57;7.80;61.70
51029;DHT22;37054;52.054;8.600;2022-12-07T08:08:22;7.90;61.70
51029;DHT22;37054;52.054;8.600;2022-12-07T08:10:48;7.90;61.90
51029;DHT22;37054;52.054;8.600;2022-12-07T08:13:15;8.00;62.20
51029;DHT22;37054;52.054;8.600;2022-12-07T08:15:44;8.00;62.20
51029;DHT22;37054;52.054;8.600;2022-12-07T08:18:10;8.00;62.00
51029;DHT22;37054;52.054;8.600;2022-12-07T08:20:37;8.10;62.10
51029;DHT22;37054;52.054;8.600;2022-12-07T08:23:03;8.20;62.50
51029;DHT22;37054;52.054;8.600;2022-12-07T08:25:29;8.30;62.90
51029;DHT22;37054;52.054;8.600;2022-12-07T08:27:55;8.50;63.60
51029;DHT22;37054;52.054;8.600;2022-12-07T08:30:20;8.70;64.30
51029;DHT22;37054;52.054;8.600;2022-12-07T08:32:51;9.00;64.40
51029;DHT22;37054;52.054;8.600;2022-12-07T08:35:16;9.20;64.40
51029;DHT22;37054;52.054;8.600;2022-12-07T08:37:42;9.40;64.30
51029;DHT22;37054;52.054;8.600;2022-12-07T08:40:09;9.60;64.40
51029;DHT22;37054;52.054;8.600;2022-12-07T08:42:35;9.80;64.50
51029;DHT22;37054;52.054;8.600;2022-12-07T08:45:12;10.00;64.90
51029;DHT22;37054;52.054;8.600;2022-12-07T08:47:39;10.30;64.60
51029;DHT22;37054;52.054;8.600;2022-12-07T08:50:06;10.40;64.10
51029;DHT22;37054;52.054;8.600;2022-12-07T08:52:33;10.50;63.60
51029;DHT22;37054;52.054;8.600;2022-12-07T08:55:00;10.50;63.60
51029;DHT22;37054;52.054;8.600;2022-12-07T08:57:26;10.70;64.50
51029;DHT22;37054;52.054;8.600;2022-12-07T08:59:52;10.80;64.00
51029;DHT22;37054;52.054;8.600;2022-12-07T09:02:18;10.80;63.30
51029;DHT22;37054;52.054;8.600;2022-12-07T09:04:43;10.70;63.00
51029;DHT22;37054;52.054;8.600;2022-12-07T09:07:09;10.90;64.40
51029;DHT22;37054;52.054;8.600;2022-12-07T09:09:35;11.20;65.70
51029;DHT22;37054;52.054;8.600;2022-12-07T09:12:00;11.70;66.60
51029;DHT22;37054;52.054;8.600;2022-12-07T09:14:26;12.10;66.80
51029;DHT22;37054;52.054;8.600;2022-12-07T09:16:51;12.50;66.60
51029;DHT22;37054;52.054;8.600;2022-12-07T09:19:17;13.00;66.80
51029;DHT22;37054;52.054;8.600;2022-12-07T09:21:42;13.50;66.60
51029;DHT22;37054;52.054;8.600;2022-12-07T09:24:08;13.80;66.20
51029;DHT22;37054;52.054;8.600;2022-12-07T09:26:34;14.10;65.30
51029;DHT22;37054;52.054;8.600;2022-12-07T09:29:03;14.30;64.00
51029;DHT22;37054;52.054;8.600;2022-12-07T09:31:29;14.30;63.40
51029;DHT22;37054;52.054;8.600;2022-12-07T09:33:55;14.20;62.70
51029;DHT22;37054;52.054;8.600;2022-12-07T09:36:21;14.10;62.90
51029;DHT22;37054;52.054;8.600;2022-12-07T09:44:34;13.40;61.60
51029;DHT22;37054;52.054;8.600;2022-12-07T09:47:00;13.20;61.20
51029;DHT22;37054;52.054;8.600;2022-12-07T09:49:28;13.10;61.30
51029;DHT22;37054;52.054;8.600;2022-12-07T09:54:40;12.80;61.60
51029;DHT22;37054;52.054;8.600;2022-12-07T09:57:07;12.70;61.70
51029;DHT22;37054;52.054;8.600;2022-12-07T09:59:33;12.60;61.80
51029;DHT22;37054;52.054;8.600;2022-12-07T10:02:04;12.60;61.80
51029;DHT22;37054;52.054;8.600;2022-12-07T10:04:42;12.60;61.70
51029;DHT22;37054;52.054;8.600;2022-12-07T10:07:09;12.50;61.60
51029;DHT22;37054;52.054;8.600;2022-12-07T10:09:34;12.40;61.90
51029;DHT22;37054;52.054;8.600;2022-12-07T10:12:08;12.40;62.30
51029;DHT22;37054;52.054;8.600;2022-12-07T10:17:47;12.40;63.00
51029;DHT22;37054;52.054;8.600;2022-12-07T10:20:18;12.40;62.70
51029;DHT22;37054;52.054;8.600;2022-12-07T10:22:56;12.40;62.90
51029;DHT22;37054;52.054;8.600;2022-12-07T10:25:22;12.40;62.90
51029;DHT22;37054;52.054;8.600;2022-12-07T10:30:32;12.60;63.30
51029;DHT22;37054;52.054;8.600;2022-12-07T10:32:58;12.70;63.50
51029;DHT22;37054;52.054;8.600;2022-12-07T10:35:30;12.80;63.50
51029;DHT22;37054;52.054;8.600;2022-12-07T10:37:56;12.90;63.20
51029;DHT22;37054;52.054;8.600;2022-12-07T10:43:15;13.00;62.60
51029;DHT22;37054;52.054;8.600;2022-12-07T10:48:16;12.90;62.80
51029;DHT22;37054;52.054;8.600;2022-12-07T10:51:07;12.90;62.60
51029;DHT22;37054;52.054;8.600;2022-12-07T11:01:23;12.90;62.60
51029;DHT22;37054;52.054;8.600;2022-12-07T11:03:55;12.80;62.70
51029;DHT22;37054;52.054;8.600;2022-12-07T11:09:01;12.80;62.40
51029;DHT22;37054;52.054;8.600;2022-12-07T11:11:31;12.80;62.70
51029;DHT22;37054;52.054;8.600;2022-12-07T11:14:03;12.80;62.80
51029;DHT22;37054;52.054;8.600;2022-12-07T11:19:28;12.90;63.00
51029;DHT22;37054;52.054;8.600;2022-12-07T11:21:56;12.90;63.00
51029;DHT22;37054;52.054;8.600;2022-12-07T11:24:27;12.90;63.10
51029;DHT22;37054;52.054;8.600;2022-12-07T11:37:21;13.10;62.80
51029;DHT22;37054;52.054;8.600;2022-12-07T11:39:52;13.10;63.10
51029;DHT22;37054;52.054;8.600;2022-12-07T11:44:49;13.30;63.20
51029;DHT22;37054;52.054;8.600;2022-12-07T11:47:20;13.30;63.30
51029;DHT22;37054;52.054;8.600;2022-12-07T11:49:53;13.40;63.10
51029;DHT22;37054;52.054;8.600;2022-12-07T11:54:44;13.50;63.20
51029;DHT22;37054;52.054;8.600;2022-12-07T12:00:20;13.40;62.80
51029;DHT22;37054;52.054;8.600;2022-12-07T12:02:51;13.30;62.80
51029;DHT22;37054;52.054;8.600;2022-12-07T12:05:21;13.40;63.20
51029;DHT22;37054;52.054;8.600;2022-12-07T12:08:12;13.50;63.20
51029;DHT22;37054;52.054;8.600;2022-12-07T12:10:46;13.50;63.30
51029;DHT22;37054;52.054;8.600;2022-12-07T12:13:23;13.70;63.10
51029;DHT22;37054;52.054;8.600;2022-12-07T12:18:26;13.70;63.20
51029;DHT22;37054;52.054;8.600;2022-12-07T12:21:01;13.70;63.20
51029;DHT22;37054;52.054;8.600;2022-12-07T12:26:00;13.80;63.20
51029;DHT22;37054;52.054;8.600;2022-12-07T12:28:32;13.80;63.30
51029;DHT22;37054;52.054;8.600;2022-12-07T12:31:07;13.90;63.50
51029;DHT22;37054;52.054;8.600;2022-12-07T12:33:34;14.00;63.50
51029;DHT22;37054;52.054;8.600;2022-12-07T12:37:00;14.00;63.80
51029;DHT22;37054;52.054;8.600;2022-12-07T12:54:38;14.20;63.10
51029;DHT22;37054;52.054;8.600;2022-12-07T12:57:25;14.20;62.90
51029;DHT22;37054;52.054;8.600;2022-12-07T13:02:27;14.10;63.00
51029;DHT22;37054;52.054;8.600;2022-12-07T13:05:01;14.20;62.90
51029;DHT22;37054;52.054;8.600;2022-12-07T13:15:39;14.00;62.70
51029;DHT22;37054;52.054;8.600;2022-12-07T13:20:44;14.00;63.00
51029;DHT22;37054;52.054;8.600;2022-12-07T13:23:10;13.90;62.80
51029;DHT22;37054;52.054;8.600;2022-12-07T13:28:22;13.70;62.60
51029;DHT22;37054;52.054;8.600;2022-12-07T13:36:53;13.30;61.70
51029;DHT22;37054;52.054;8.600;2022-12-07T13:41:41;13.00;61.80
51029;DHT22;37054;52.054;8.600;2022-12-07T13:44:14;12.90;61.70
51029;DHT22;37054;52.054;8.600;2022-12-07T13:46:46;12.80;62.00
51029;DHT22;37054;52.054;8.600;2022-12-07T13:49:31;12.80;62.20
51029;DHT22;37054;52.054;8.600;2022-12-07T13:55:26;12.90;62.80
51029;DHT22;37054;52.054;8.600;2022-12-07T13:57:33;13.00;62.50
51029;DHT22;37054;52.054;8.600;2022-12-07T14:00:00;13.00;62.50
51029;DHT22;37054;52.054;8.600;2022-12-07T14:02:31;13.00;62.30
51029;DHT22;37054;52.054;8.600;2022-12-07T14:07:34;13.00;62.30
51029;DHT22;37054;52.054;8.600;2022-12-07T14:10:05;12.90;62.20
51029;DHT22;37054;52.054;8.600;2022-12-07T14:12:31;12.80;62.00
51029;DHT22;37054;52.054;8.600;2022-12-07T14:14:58;12.80;61.90
51029;DHT22;37054;52.054;8.600;2022-12-07T14:17:28;12.70;61.70
51029;DHT22;37054;52.054;8.600;2022-12-07T14:19:54;12.50;60.90
51029;DHT22;37054;52.054;8.600;2022-12-07T14:22:23;12.40;60.60
51029;DHT22;37054;52.054;8.600;2022-12-07T14:24:58;12.20;60.20
51029;DHT22;37054;52.054;8.600;2022-12-07T14:27:24;12.10;59.90
51029;DHT22;37054;52.054;8.600;2022-12-07T14:29:55;12.00;60.00
51029;DHT22;37054;52.054;8.600;2022-12-07T14:35:00;11.70;59.90
51029;DHT22;37054;52.054;8.600;2022-12-07T14:37:27;11.50;59.60
51029;DHT22;37054;52.054;8.600;2022-12-07T14:39:53;11.50;59.80
51029;DHT22;37054;52.054;8.600;2022-12-07T14:42:19;11.30;59.90
51029;DHT22;37054;52.054;8.600;2022-12-07T14:44:45;11.30;60.10
51029;DHT22;37054;52.054;8.600;2022-12-07T14:47:11;11.20;60.10
51029;DHT22;37054;52.054;8.600;2022-12-07T14:49:36;11.10;60.10
51029;DHT22;37054;52.054;8.600;2022-12-07T14:52:08;11.00;60.00
51029;DHT22;37054;52.054;8.600;2022-12-07T14:54:38;11.00;59.70
51029;DHT22;37054;52.054;8.600;2022-12-07T14:57:06;10.90;59.50
51029;DHT22;37054;52.054;8.600;2022-12-07T14:59:32;10.80;59.50
51029;DHT22;37054;52.054;8.600;2022-12-07T15:01:58;10.80;59.70
51029;DHT22;37054;52.054;8.600;2022-12-07T15:04:24;10.70;59.80
51029;DHT22;37054;52.054;8.600;2022-12-07T15:07:00;10.70;59.90
51029;DHT22;37054;52.054;8.600;2022-12-07T15:09:29;10.60;59.90
51029;DHT22;37054;52.054;8.600;2022-12-07T15:11:54;10.60;60.10
51029;DHT22;37054;52.054;8.600;2022-12-07T15:14:20;10.50;60.40
51029;DHT22;37054;52.054;8.600;2022-12-07T15:16:45;10.60;60.80
51029;DHT22;37054;52.054;8.600;2022-12-07T15:19:12;10.60;61.10
51029;DHT22;37054;52.054;8.600;2022-12-07T15:21:39;10.70;61.40
51029;DHT22;37054;52.054;8.600;2022-12-07T15:24:04;10.70;61.50
51029;DHT22;37054;52.054;8.600;2022-12-07T15:26:30;10.80;61.80
51029;DHT22;37054;52.054;8.600;2022-12-07T15:28:56;10.80;61.80
51029;DHT22;37054;52.054;8.600;2022-12-07T15:31:22;10.80;61.80
51029;DHT22;37054;52.054;8.600;2022-12-07T15:33:47;10.90;61.80
51029;DHT22;37054;52.054;8.600;2022-12-07T15:36:23;10.90;62.00
51029;DHT22;37054;52.054;8.600;2022-12-07T15:38:48;10.90;62.10
51029;DHT22;37054;52.054;8.600;2022-12-07T15:41:14;11.00;62.20
51029;DHT22;37054;52.054;8.600;2022-12-07T15:43:42;11.00;62.20
51029;DHT22;37054;52.054;8.600;2022-12-07T15:46:32;11.00;62.20
51029;DHT22;37054;52.054;8.600;2022-12-07T15:48:59;11.00;62.30
51029;DHT22;37054;52.054;8.600;2022-12-07T15:51:25;11.00;62.30
51029;DHT22;37054;52.054;8.600;2022-12-07T15:53:50;11.10;62.50
51029;DHT22;37054;52.054;8.600;2022-12-07T15:56:16;11.00;62.40
51029;DHT22;37054;52.054;8.600;2022-12-07T15:58:41;11.00;62.40
51029;DHT22;37054;52.054;8.600;2022-12-07T16:01:11;11.00;62.50
51029;DHT22;37054;52.054;8.600;2022-12-07T16:03:39;11.00;62.70
51029;DHT22;37054;52.054;8.600;2022-12-07T16:06:04;11.00;62.70
51029;DHT22;37054;52.054;8.600;2022-12-07T16:08:30;10.90;62.20
51029;DHT22;37054;52.054;8.600;2022-12-07T16:10:56;10.80;60.40
51029;DHT22;37054;52.054;8.600;2022-12-07T16:13:21;10.20;58.90
51029;DHT22;37054;52.054;8.600;2022-12-07T16:15:47;10.00;59.90
51029;DHT22;37054;52.054;8.600;2022-12-07T16:18:12;9.90;60.70
51029;DHT22;37054;52.054;8.600;2022-12-07T16:20:39;9.80;61.00
51029;DHT22;37054;52.054;8.600;2022-12-07T16:23:05;9.80;61.20
51029;DHT22;37054;52.054;8.600;2022-12-07T16:25:33;9.70;61.20
51029;DHT22;37054;52.054;8.600;2022-12-07T16:27:59;9.60;61.40
51029;DHT22;37054;52.054;8.600;2022-12-07T16:30:27;9.50;61.40
51029;DHT22;37054;52.054;8.600;2022-12-07T16:32:52;9.40;61.40
51029;DHT22;37054;52.054;8.600;2022-12-07T16:35:18;9.30;61.40
51029;DHT22;37054;52.054;8.600;2022-12-07T16:37:44;9.20;61.30
51029;DHT22;37054;52.054;8.600;2022-12-07T16:40:09;9.20;61.40
51029;DHT22;37054;52.054;8.600;2022-12-07T16:42:35;9.10;61.20
51029;DHT22;37054;52.054;8.600;2022-12-07T16:45:02;9.00;61.00
51029;DHT22;37054;52.054;8.600;2022-12-07T16:47:28;9.00;60.90
51029;DHT22;37054;52.054;8.600;2022-12-07T16:49:54;8.90;60.80
51029;DHT22;37054;52.054;8.600;2022-12-07T16:52:20;8.90;60.80
51029;DHT22;37054;52.054;8.600;2022-12-07T16:54:46;8.80;60.80
51029;DHT22;37054;52.054;8.600;2022-12-07T16:57:11;8.70;61.00
51029;DHT22;37054;52.054;8.600;2022-12-07T16:59:37;8.70;61.00
51029;DHT22;37054;52.054;8.600;2022-12-07T17:02:02;8.70;60.90
51029;DHT22;37054;52.054;8.600;2022-12-07T17:04:28;8.60;60.90
51029;DHT22;37054;52.054;8.600;2022-12-07T17:06:54;8.60;60.80
51029;DHT22;37054;52.054;8.600;2022-12-07T17:09:19;8.50;60.90
51029;DHT22;37054;52.054;8.600;2022-12-07T17:11:45;8.50;61.00
51029;DHT22;37054;52.054;8.600;2022-12-07T17:14:11;8.50;61.30
51029;DHT22;37054;52.054;8.600;2022-12-07T17:16:55;8.60;61.60
51029;DHT22;37054;52.054;8.600;2022-12-07T17:19:20;8.50;61.80
51029;DHT22;37054;52.054;8.600;2022-12-07T17:21:46;8.60;61.80
51029;DHT22;37054;52.054;8.600;2022-12-07T17:24:15;8.60;61.70
51029;DHT22;37054;52.054;8.600;2022-12-07T17:26:42;8.60;61.90
51029;DHT22;37054;52.054;8.600;2022-12-07T17:29:07;8.60;61.90
51029;DHT22;37054;52.054;8.600;2022-12-07T17:31:34;8.60;61.80
51029;DHT22;37054;52.054;8.600;2022-12-07T17:33:59;8.60;61.80
51029;DHT22;37054;52.054;8.600;2022-12-07T17:36:26;8.60;62.00
51029;DHT22;37054;52.054;8.600;2022-12-07T17:38:52;8.70;62.00
51029;DHT22;37054;52.054;8.600;2022-12-07T17:41:19;8.70;62.00
51029;DHT22;37054;52.054;8.600;2022-12-07T17:44:04;8.80;62.20
51029;DHT22;37054;52.054;8.600;2022-12-07T17:46:30;8.80;62.30
51029;DHT22;37054;52.054;8.600;2022-12-07T17:48:56;8.90;62.50